sensor_id;sensor_type;location;lat;lon;timestamp;P1;durP1;ratioP1;P2;durP2;ratioP2
19593;SDS011;9944;48.240;16.478;2022-11-15T00:02:01;26.95;;;12.07;;
19593;SDS011;9944;48.240;16.478;2022-11-15T00:06:25;29.08;;;12.82;;
19593;SDS011;9944;48.240;16.478;2022-11-15T00:10:55;26.50;;;11.77;;
19593;SDS011;9944;48.240;16.478;2022-11-15T00:15:16;29.02;;;13.02;;
19593;SDS011;9944;48.240;16.478;2022-11-15T00:19:38;28.45;;;11.27;;
19593;SDS011;9944;48.240;16.478;2022-11-15T00:23:59;28.90;;;12.57;;
19593;SDS011;9944;48.240;16.478;2022-11-15T00:28:22;32.50;;;12.30;;
19593;SDS011;9944;48.240;16.478;2022-11-15T00:32:44;28.10;;;12.57;;
19593;SDS011;9944;48.240;16.478;2022-11-15T00:37:06;30.27;;;12.50;;
19593;SDS011;9944;48.240;16.478;2022-11-15T00:41:27;33.47;;;13.27;;
19593;SDS011;9944;48.240;16.478;2022-11-15T00:45:50;32.00;;;13.98;;
19593;SDS011;9944;48.240;16.478;2022-11-15T00:50:12;29.83;;;13.35;;
19593;SDS011;9944;48.240;16.478;2022-11-15T00:54:35;32.60;;;13.32;;
19593;SDS011;9944;48.240;16.478;2022-11-15T00:58:56;32.92;;;14.25;;
19593;SDS011;9944;48.240;16.478;2022-11-15T01:03:19;31.25;;;13.73;;
19593;SDS011;9944;48.240;16.478;2022-11-15T01:07:41;36.88;;;13.88;;
19593;SDS011;9944;48.240;16.478;2022-11-15T01:12:02;37.70;;;15.10;;
19593;SDS011;9944;48.240;16.478;2022-11-15T01:16:24;36.33;;;15.32;;
19593;SDS011;9944;48.240;16.478;2022-11-15T01:20:47;36.10;;;15.55;;
19593;SDS011;9944;48.240;16.478;2022-11-15T01:25:09;38.08;;;14.15;;
19593;SDS011;9944;48.240;16.478;2022-11-15T01:29:30;38.35;;;15.95;;
19593;SDS011;9944;48.240;16.478;2022-11-15T01:33:52;35.63;;;14.90;;
19593;SDS011;9944;48.240;16.478;2022-11-15T01:38:15;35.65;;;14.35;;
19593;SDS011;9944;48.240;16.478;2022-11-15T01:42:37;34.20;;;13.55;;
19593;SDS011;9944;48.240;16.478;2022-11-15T01:46:59;32.17;;;13.70;;
19593;SDS011;9944;48.240;16.478;2022-11-15T01:51:23;32.10;;;12.98;;
19593;SDS011;9944;48.240;16.478;2022-11-15T01:55:48;32.20;;;13.27;;
19593;SDS011;9944;48.240;16.478;2022-11-15T02:00:11;37.90;;;14.07;;
19593;SDS011;9944;48.240;16.478;2022-11-15T02:04:35;32.15;;;13.32;;
19593;SDS011;9944;48.240;16.478;2022-11-15T02:09:00;32.33;;;13.52;;
19593;SDS011;9944;48.240;16.478;2022-11-15T02:13:24;30.85;;;13.60;;
19593;SDS011;9944;48.240;16.478;2022-11-15T02:17:58;32.42;;;13.63;;
19593;SDS011;9944;48.240;16.478;2022-11-15T02:22:30;32.08;;;13.55;;
19593;SDS011;9944;48.240;16.478;2022-11-15T02:27:08;33.78;;;14.57;;
19593;SDS011;9944;48.240;16.478;2022-11-15T02:31:50;32.70;;;13.25;;
19593;SDS011;9944;48.240;16.478;2022-11-15T02:36:21;32.30;;;13.35;;
19593;SDS011;9944;48.240;16.478;2022-11-15T02:40:53;32.00;;;13.30;;
19593;SDS011;9944;48.240;16.478;2022-11-15T02:45:19;29.88;;;12.45;;
19593;SDS011;9944;48.240;16.478;2022-11-15T02:49:47;25.48;;;12.07;;
19593;SDS011;9944;48.240;16.478;2022-11-15T02:54:12;32.30;;;13.00;;
19593;SDS011;9944;48.240;16.478;2022-11-15T02:58:45;30.77;;;12.13;;
19593;SDS011;9944;48.240;16.478;2022-11-15T03:03:19;30.58;;;12.65;;
19593;SDS011;9944;48.240;16.478;2022-11-15T03:07:53;28.30;;;11.95;;
19593;SDS011;9944;48.240;16.478;2022-11-15T03:12:24;33.15;;;13.80;;
19593;SDS011;9944;48.240;16.478;2022-11-15T03:16:49;33.92;;;14.23;;
19593;SDS011;9944;48.240;16.478;2022-11-15T03:21:17;36.05;;;13.63;;
19593;SDS011;9944;48.240;16.478;2022-11-15T03:25:43;32.45;;;13.85;;
19593;SDS011;9944;48.240;16.478;2022-11-15T03:30:09;29.60;;;13.55;;
19593;SDS011;9944;48.240;16.478;2022-11-15T03:34:33;35.00;;;13.98;;
19593;SDS011;9944;48.240;16.478;2022-11-15T03:39:00;32.30;;;13.35;;
19593;SDS011;9944;48.240;16.478;2022-11-15T03:43:30;35.53;;;14.60;;
19593;SDS011;9944;48.240;16.478;2022-11-15T03:47:58;32.15;;;13.27;;
19593;SDS011;9944;48.240;16.478;2022-11-15T03:52:23;36.95;;;15.25;;
19593;SDS011;9944;48.240;16.478;2022-11-15T03:56:45;33.28;;;13.70;;
19593;SDS011;9944;48.240;16.478;2022-11-15T04:01:08;32.13;;;14.45;;
19593;SDS011;9944;48.240;16.478;2022-11-15T04:05:30;36.03;;;13.25;;
19593;SDS011;9944;48.240;16.478;2022-11-15T04:09:52;29.25;;;13.68;;
19593;SDS011;9944;48.240;16.478;2022-11-15T04:14:25;35.83;;;13.75;;
19593;SDS011;9944;48.240;16.478;2022-11-15T04:18:49;30.15;;;12.93;;
19593;SDS011;9944;48.240;16.478;2022-11-15T04:23:30;31.15;;;12.43;;
19593;SDS011;9944;48.240;16.478;2022-11-15T04:28:21;33.88;;;14.13;;
19593;SDS011;9944;48.240;16.478;2022-11-15T04:32:42;34.75;;;13.60;;
19593;SDS011;9944;48.240;16.478;2022-11-15T04:37:05;27.60;;;11.98;;
19593;SDS011;9944;48.240;16.478;2022-11-15T04:41:33;31.80;;;13.82;;
19593;SDS011;9944;48.240;16.478;2022-11-15T04:45:54;29.05;;;13.32;;
19593;SDS011;9944;48.240;16.478;2022-11-15T04:50:16;29.90;;;12.05;;
19593;SDS011;9944;48.240;16.478;2022-11-15T04:54:40;31.98;;;13.27;;
19593;SDS011;9944;48.240;16.478;2022-11-15T04:59:02;29.73;;;12.55;;
19593;SDS011;9944;48.240;16.478;2022-11-15T05:03:24;26.23;;;12.52;;
19593;SDS011;9944;48.240;16.478;2022-11-15T05:08:03;26.30;;;12.63;;
19593;SDS011;9944;48.240;16.478;2022-11-15T05:12:27;27.92;;;12.45;;
19593;SDS011;9944;48.240;16.478;2022-11-15T05:16:49;30.77;;;12.27;;
19593;SDS011;9944;48.240;16.478;2022-11-15T05:21:12;28.25;;;13.40;;
19593;SDS011;9944;48.240;16.478;2022-11-15T05:25:36;28.45;;;12.10;;
19593;SDS011;9944;48.240;16.478;2022-11-15T05:29:59;24.85;;;12.07;;
19593;SDS011;9944;48.240;16.478;2022-11-15T05:34:21;23.50;;;11.90;;
19593;SDS011;9944;48.240;16.478;2022-11-15T05:38:44;28.88;;;12.18;;
19593;SDS011;9944;48.240;16.478;2022-11-15T05:43:07;30.73;;;13.73;;
19593;SDS011;9944;48.240;16.478;2022-11-15T05:47:30;30.88;;;13.40;;
19593;SDS011;9944;48.240;16.478;2022-11-15T05:51:54;29.73;;;11.77;;
19593;SDS011;9944;48.240;16.478;2022-11-15T05:56:17;28.45;;;12.35;;
19593;SDS011;9944;48.240;16.478;2022-11-15T06:00:39;29.30;;;12.95;;
19593;SDS011;9944;48.240;16.478;2022-11-15T06:05:02;29.17;;;12.90;;
19593;SDS011;9944;48.240;16.478;2022-11-15T06:09:25;29.58;;;13.07;;
19593;SDS011;9944;48.240;16.478;2022-11-15T06:13:46;30.45;;;13.10;;
19593;SDS011;9944;48.240;16.478;2022-11-15T06:18:08;27.83;;;13.02;;
19593;SDS011;9944;48.240;16.478;2022-11-15T06:22:31;26.10;;;12.68;;
19593;SDS011;9944;48.240;16.478;2022-11-15T06:26:53;29.50;;;13.02;;
19593;SDS011;9944;48.240;16.478;2022-11-15T06:31:16;28.85;;;12.98;;
19593;SDS011;9944;48.240;16.478;2022-11-15T06:35:38;27.27;;;12.73;;
19593;SDS011;9944;48.240;16.478;2022-11-15T06:40:01;28.65;;;12.45;;
19593;SDS011;9944;48.240;16.478;2022-11-15T06:44:22;28.83;;;13.60;;
19593;SDS011;9944;48.240;16.478;2022-11-15T06:48:43;28.60;;;12.55;;
19593;SDS011;9944;48.240;16.478;2022-11-15T06:53:05;30.05;;;13.65;;
19593;SDS011;9944;48.240;16.478;2022-11-15T06:57:28;29.13;;;13.15;;
19593;SDS011;9944;48.240;16.478;2022-11-15T07:01:49;30.65;;;13.52;;
19593;SDS011;9944;48.240;16.478;2022-11-15T07:06:12;30.95;;;12.63;;
19593;SDS011;9944;48.240;16.478;2022-11-15T07:10:34;29.15;;;13.18;;
19593;SDS011;9944;48.240;16.478;2022-11-15T07:14:57;28.90;;;13.05;;
19593;SDS011;9944;48.240;16.478;2022-11-15T07:19:18;28.15;;;12.35;;
19593;SDS011;9944;48.240;16.478;2022-11-15T07:23:40;29.42;;;13.63;;
19593;SDS011;9944;48.240;16.478;2022-11-15T07:28:02;33.20;;;13.43;;
19593;SDS011;9944;48.240;16.478;2022-11-15T07:32:25;33.50;;;13.13;;
19593;SDS011;9944;48.240;16.478;2022-11-15T07:36:47;29.92;;;13.55;;
19593;SDS011;9944;48.240;16.478;2022-11-15T07:41:10;26.38;;;13.38;;
19593;SDS011;9944;48.240;16.478;2022-11-15T07:45:32;33.00;;;14.45;;
19593;SDS011;9944;48.240;16.478;2022-11-15T07:49:55;33.75;;;13.70;;
19593;SDS011;9944;48.240;16.478;2022-11-15T07:54:17;32.30;;;13.98;;
19593;SDS011;9944;48.240;16.478;2022-11-15T07:58:39;31.70;;;13.05;;
19593;SDS011;9944;48.240;16.478;2022-11-15T08:03:01;41.33;;;14.25;;
19593;SDS011;9944;48.240;16.478;2022-11-15T08:07:26;30.02;;;13.70;;
19593;SDS011;9944;48.240;16.478;2022-11-15T08:11:50;30.30;;;13.13;;
19593;SDS011;9944;48.240;16.478;2022-11-15T08:16:12;31.85;;;14.27;;
19593;SDS011;9944;48.240;16.478;2022-11-15T08:20:33;32.28;;;13.48;;
19593;SDS011;9944;48.240;16.478;2022-11-15T08:24:58;28.83;;;13.98;;
19593;SDS011;9944;48.240;16.478;2022-11-15T08:29:19;28.33;;;12.82;;
19593;SDS011;9944;48.240;16.478;2022-11-15T08:33:41;29.13;;;12.93;;
19593;SDS011;9944;48.240;16.478;2022-11-15T08:38:02;29.13;;;13.10;;
19593;SDS011;9944;48.240;16.478;2022-11-15T08:42:25;28.92;;;12.40;;
19593;SDS011;9944;48.240;16.478;2022-11-15T08:46:46;30.98;;;13.35;;
19593;SDS011;9944;48.240;16.478;2022-11-15T08:51:08;30.27;;;12.90;;
19593;SDS011;9944;48.240;16.478;2022-11-15T08:55:30;28.88;;;12.73;;
19593;SDS011;9944;48.240;16.478;2022-11-15T08:59:53;25.67;;;12.90;;
19593;SDS011;9944;48.240;16.478;2022-11-15T09:04:14;29.90;;;12.50;;
19593;SDS011;9944;48.240;16.478;2022-11-15T09:08:36;30.98;;;12.60;;
19593;SDS011;9944;48.240;16.478;2022-11-15T09:13:10;29.77;;;12.77;;
19593;SDS011;9944;48.240;16.478;2022-11-15T09:17:33;33.65;;;13.32;;
19593;SDS011;9944;48.240;16.478;2022-11-15T09:21:55;32.30;;;12.80;;
19593;SDS011;9944;48.240;16.478;2022-11-15T09:26:17;31.15;;;13.90;;
19593;SDS011;9944;48.240;16.478;2022-11-15T09:30:39;32.03;;;13.05;;
19593;SDS011;9944;48.240;16.478;2022-11-15T09:35:02;30.13;;;12.88;;
19593;SDS011;9944;48.240;16.478;2022-11-15T09:39:24;31.38;;;13.25;;
19593;SDS011;9944;48.240;16.478;2022-11-15T09:43:47;33.58;;;13.32;;
19593;SDS011;9944;48.240;16.478;2022-11-15T09:48:23;33.60;;;13.55;;
19593;SDS011;9944;48.240;16.478;2022-11-15T09:52:59;30.73;;;13.70;;
19593;SDS011;9944;48.240;16.478;2022-11-15T09:57:04;35.42;;;14.35;;
19593;SDS011;9944;48.240;16.478;2022-11-15T10:01:17;34.45;;;14.32;;
19593;SDS011;9944;48.240;16.478;2022-11-15T10:05:28;29.85;;;13.48;;
19593;SDS011;9944;48.240;16.478;2022-11-15T10:09:36;37.15;;;14.25;;
19593;SDS011;9944;48.240;16.478;2022-11-15T10:13:46;31.30;;;12.93;;
19593;SDS011;9944;48.240;16.478;2022-11-15T10:18:05;35.25;;;14.27;;
19593;SDS011;9944;48.240;16.478;2022-11-15T10:22:16;34.78;;;13.75;;
19593;SDS011;9944;48.240;16.478;2022-11-15T10:26:29;35.08;;;14.38;;
19593;SDS011;9944;48.240;16.478;2022-11-15T10:30:33;36.30;;;14.43;;
19593;SDS011;9944;48.240;16.478;2022-11-15T10:34:37;33.40;;;13.38;;
19593;SDS011;9944;48.240;16.478;2022-11-15T10:38:49;41.22;;;14.90;;
19593;SDS011;9944;48.240;16.478;2022-11-15T10:43:05;36.88;;;14.05;;
19593;SDS011;9944;48.240;16.478;2022-11-15T10:47:22;38.50;;;14.50;;
19593;SDS011;9944;48.240;16.478;2022-11-15T10:51:27;36.05;;;13.30;;
19593;SDS011;9944;48.240;16.478;2022-11-15T10:55:32;40.10;;;14.60;;
19593;SDS011;9944;48.240;16.478;2022-11-15T10:59:38;33.22;;;14.27;;
19593;SDS011;9944;48.240;16.478;2022-11-15T11:03:57;35.55;;;14.65;;
19593;SDS011;9944;48.240;16.478;2022-11-15T11:08:03;35.17;;;13.43;;
19593;SDS011;9944;48.240;16.478;2022-11-15T11:12:29;28.17;;;11.50;;
19593;SDS011;9944;48.240;16.478;2022-11-15T11:16:40;29.15;;;13.10;;
19593;SDS011;9944;48.240;16.478;2022-11-15T11:20:51;32.58;;;13.15;;
19593;SDS011;9944;48.240;16.478;2022-11-15T11:25:09;31.75;;;12.90;;
19593;SDS011;9944;48.240;16.478;2022-11-15T11:29:26;29.30;;;12.23;;
19593;SDS011;9944;48.240;16.478;2022-11-15T11:33:44;34.42;;;12.43;;
19593;SDS011;9944;48.240;16.478;2022-11-15T11:37:54;29.08;;;12.85;;
19593;SDS011;9944;48.240;16.478;2022-11-15T11:42:09;37.60;;;15.10;;
19593;SDS011;9944;48.240;16.478;2022-11-15T11:46:25;35.50;;;13.95;;
19593;SDS011;9944;48.240;16.478;2022-11-15T11:50:43;34.25;;;14.60;;
19593;SDS011;9944;48.240;16.478;2022-11-15T11:54:54;34.97;;;14.43;;
19593;SDS011;9944;48.240;16.478;2022-11-15T11:59:10;36.63;;;13.30;;
19593;SDS011;9944;48.240;16.478;2022-11-15T12:03:23;33.33;;;13.35;;
19593;SDS011;9944;48.240;16.478;2022-11-15T12:07:33;44.08;;;16.42;;
19593;SDS011;9944;48.240;16.478;2022-11-15T12:11:41;41.15;;;15.63;;
19593;SDS011;9944;48.240;16.478;2022-11-15T12:15:57;38.13;;;15.43;;
19593;SDS011;9944;48.240;16.478;2022-11-15T12:20:14;40.10;;;15.45;;
19593;SDS011;9944;48.240;16.478;2022-11-15T12:24:22;37.40;;;14.63;;
19593;SDS011;9944;48.240;16.478;2022-11-15T12:28:32;37.88;;;15.50;;
19593;SDS011;9944;48.240;16.478;2022-11-15T12:33:00;36.72;;;14.80;;
19593;SDS011;9944;48.240;16.478;2022-11-15T12:46:59;42.65;;;16.63;;
19593;SDS011;9944;48.240;16.478;2022-11-15T12:51:05;41.97;;;16.70;;
19593;SDS011;9944;48.240;16.478;2022-11-15T12:55:29;37.75;;;16.00;;
19593;SDS011;9944;48.240;16.478;2022-11-15T13:08:35;39.83;;;16.50;;
19593;SDS011;9944;48.240;16.478;2022-11-15T13:12:50;40.55;;;16.70;;
19593;SDS011;9944;48.240;16.478;2022-11-15T13:16:58;39.30;;;16.38;;
19593;SDS011;9944;48.240;16.478;2022-11-15T13:21:03;39.60;;;16.85;;
19593;SDS011;9944;48.240;16.478;2022-11-15T13:25:40;38.03;;;16.73;;
19593;SDS011;9944;48.240;16.478;2022-11-15T13:30:04;37.45;;;16.58;;
19593;SDS011;9944;48.240;16.478;2022-11-15T13:34:16;38.70;;;15.93;;
19593;SDS011;9944;48.240;16.478;2022-11-15T13:38:45;42.00;;;17.90;;
19593;SDS011;9944;48.240;16.478;2022-11-15T13:42:58;37.80;;;16.67;;
19593;SDS011;9944;48.240;16.478;2022-11-15T13:47:03;37.67;;;16.65;;
19593;SDS011;9944;48.240;16.478;2022-11-15T13:51:10;44.83;;;18.73;;
19593;SDS011;9944;48.240;16.478;2022-11-15T13:55:20;40.22;;;16.88;;
19593;SDS011;9944;48.240;16.478;2022-11-15T13:59:26;38.45;;;16.90;;
19593;SDS011;9944;48.240;16.478;2022-11-15T14:03:32;45.45;;;17.48;;
19593;SDS011;9944;48.240;16.478;2022-11-15T14:07:37;47.78;;;18.58;;
19593;SDS011;9944;48.240;16.478;2022-11-15T14:11:51;46.65;;;17.48;;
19593;SDS011;9944;48.240;16.478;2022-11-15T14:20:28;38.78;;;17.35;;
19593;SDS011;9944;48.240;16.478;2022-11-15T14:24:35;40.50;;;18.38;;
19593;SDS011;9944;48.240;16.478;2022-11-15T14:28:39;45.90;;;18.90;;
19593;SDS011;9944;48.240;16.478;2022-11-15T14:32:43;42.85;;;18.17;;
19593;SDS011;9944;48.240;16.478;2022-11-15T14:36:48;42.95;;;18.52;;
19593;SDS011;9944;48.240;16.478;2022-11-15T14:40:52;42.30;;;17.70;;
19593;SDS011;9944;48.240;16.478;2022-11-15T14:44:57;45.03;;;19.27;;
19593;SDS011;9944;48.240;16.478;2022-11-15T14:49:00;39.63;;;17.55;;
19593;SDS011;9944;48.240;16.478;2022-11-15T14:53:04;48.67;;;20.08;;
19593;SDS011;9944;48.240;16.478;2022-11-15T14:57:09;46.15;;;19.60;;
19593;SDS011;9944;48.240;16.478;2022-11-15T15:01:12;43.03;;;18.27;;
19593;SDS011;9944;48.240;16.478;2022-11-15T15:05:26;41.50;;;16.95;;
19593;SDS011;9944;48.240;16.478;2022-11-15T15:09:33;42.38;;;18.30;;
19593;SDS011;9944;48.240;16.478;2022-11-15T15:13:38;41.30;;;18.55;;
19593;SDS011;9944;48.240;16.478;2022-11-15T15:17:41;45.78;;;18.65;;
19593;SDS011;9944;48.240;16.478;2022-11-15T15:21:44;46.63;;;18.70;;
19593;SDS011;9944;48.240;16.478;2022-11-15T15:25:47;45.92;;;19.25;;
19593;SDS011;9944;48.240;16.478;2022-11-15T15:29:52;46.20;;;21.25;;
19593;SDS011;9944;48.240;16.478;2022-11-15T15:33:55;41.10;;;19.50;;
19593;SDS011;9944;48.240;16.478;2022-11-15T15:37:58;40.10;;;19.02;;
19593;SDS011;9944;48.240;16.478;2022-11-15T15:42:01;42.55;;;18.15;;
19593;SDS011;9944;48.240;16.478;2022-11-15T15:46:08;41.22;;;18.02;;
19593;SDS011;9944;48.240;16.478;2022-11-15T15:50:16;42.63;;;19.00;;
19593;SDS011;9944;48.240;16.478;2022-11-15T15:54:23;43.30;;;18.77;;
19593;SDS011;9944;48.240;16.478;2022-11-15T15:58:26;41.72;;;18.52;;
19593;SDS011;9944;48.240;16.478;2022-11-15T16:02:31;42.60;;;18.15;;
19593;SDS011;9944;48.240;16.478;2022-11-15T16:06:41;45.17;;;18.85;;
19593;SDS011;9944;48.240;16.478;2022-11-15T16:10:51;42.25;;;18.92;;
19593;SDS011;9944;48.240;16.478;2022-11-15T16:14:54;41.53;;;19.08;;
19593;SDS011;9944;48.240;16.478;2022-11-15T16:18:59;39.83;;;17.90;;
19593;SDS011;9944;48.240;16.478;2022-11-15T16:23:03;39.80;;;17.67;;
19593;SDS011;9944;48.240;16.478;2022-11-15T16:27:10;37.25;;;17.17;;
19593;SDS011;9944;48.240;16.478;2022-11-15T16:31:16;38.13;;;16.27;;
19593;SDS011;9944;48.240;16.478;2022-11-15T16:35:23;33.00;;;16.13;;
19593;SDS011;9944;48.240;16.478;2022-11-15T16:39:27;31.50;;;15.10;;
19593;SDS011;9944;48.240;16.478;2022-11-15T16:43:31;29.38;;;14.45;;
19593;SDS011;9944;48.240;16.478;2022-11-15T16:47:34;29.67;;;14.27;;
19593;SDS011;9944;48.240;16.478;2022-11-15T16:51:38;25.52;;;12.48;;
19593;SDS011;9944;48.240;16.478;2022-11-15T16:55:42;29.63;;;12.43;;
19593;SDS011;9944;48.240;16.478;2022-11-15T16:59:45;29.20;;;12.40;;
19593;SDS011;9944;48.240;16.478;2022-11-15T17:03:48;29.13;;;14.05;;
19593;SDS011;9944;48.240;16.478;2022-11-15T17:07:53;26.38;;;13.75;;
19593;SDS011;9944;48.240;16.478;2022-11-15T17:11:56;27.23;;;12.63;;
19593;SDS011;9944;48.240;16.478;2022-11-15T17:16:03;32.25;;;14.10;;
19593;SDS011;9944;48.240;16.478;2022-11-15T17:20:08;26.42;;;13.23;;
19593;SDS011;9944;48.240;16.478;2022-11-15T17:24:18;25.35;;;13.95;;
19593;SDS011;9944;48.240;16.478;2022-11-15T17:28:22;28.40;;;13.10;;
19593;SDS011;9944;48.240;16.478;2022-11-15T17:32:25;29.08;;;13.27;;
19593;SDS011;9944;48.240;16.478;2022-11-15T17:36:28;29.42;;;13.82;;
19593;SDS011;9944;48.240;16.478;2022-11-15T17:40:33;31.73;;;13.85;;
19593;SDS011;9944;48.240;16.478;2022-11-15T17:44:36;29.73;;;13.43;;
19593;SDS011;9944;48.240;16.478;2022-11-15T17:48:39;27.35;;;13.50;;
19593;SDS011;9944;48.240;16.478;2022-11-15T17:52:43;26.25;;;13.90;;
19593;SDS011;9944;48.240;16.478;2022-11-15T17:56:48;32.55;;;14.52;;
19593;SDS011;9944;48.240;16.478;2022-11-15T18:00:51;26.75;;;14.05;;
19593;SDS011;9944;48.240;16.478;2022-11-15T18:04:54;29.65;;;14.10;;
19593;SDS011;9944;48.240;16.478;2022-11-15T18:08:57;29.58;;;14.05;;
19593;SDS011;9944;48.240;16.478;2022-11-15T18:13:02;33.47;;;13.50;;
19593;SDS011;9944;48.240;16.478;2022-11-15T18:17:06;28.70;;;13.70;;
19593;SDS011;9944;48.240;16.478;2022-11-15T18:21:09;27.98;;;14.25;;
19593;SDS011;9944;48.240;16.478;2022-11-15T18:25:14;31.27;;;14.23;;
19593;SDS011;9944;48.240;16.478;2022-11-15T18:29:19;30.88;;;14.85;;
19593;SDS011;9944;48.240;16.478;2022-11-15T18:33:25;27.65;;;13.30;;
19593;SDS011;9944;48.240;16.478;2022-11-15T18:37:28;29.20;;;13.68;;
19593;SDS011;9944;48.240;16.478;2022-11-15T18:41:31;30.95;;;14.20;;
19593;SDS011;9944;48.240;16.478;2022-11-15T18:45:38;33.00;;;14.48;;
19593;SDS011;9944;48.240;16.478;2022-11-15T18:49:41;27.00;;;12.82;;
19593;SDS011;9944;48.240;16.478;2022-11-15T18:53:44;30.55;;;14.50;;
19593;SDS011;9944;48.240;16.478;2022-11-15T18:57:48;28.90;;;13.00;;
19593;SDS011;9944;48.240;16.478;2022-11-15T19:01:52;22.55;;;12.10;;
19593;SDS011;9944;48.240;16.478;2022-11-15T19:06:00;19.13;;;10.43;;
19593;SDS011;9944;48.240;16.478;2022-11-15T19:10:04;21.40;;;10.35;;
19593;SDS011;9944;48.240;16.478;2022-11-15T19:14:09;21.40;;;9.68;;
19593;SDS011;9944;48.240;16.478;2022-11-15T19:18:15;17.33;;;8.88;;
19593;SDS011;9944;48.240;16.478;2022-11-15T19:22:21;20.67;;;9.30;;
19593;SDS011;9944;48.240;16.478;2022-11-15T19:26:27;19.88;;;8.93;;
19593;SDS011;9944;48.240;16.478;2022-11-15T19:30:38;18.15;;;8.40;;
19593;SDS011;9944;48.240;16.478;2022-11-15T19:34:42;18.60;;;8.68;;
19593;SDS011;9944;48.240;16.478;2022-11-15T19:38:45;17.42;;;8.88;;
19593;SDS011;9944;48.240;16.478;2022-11-15T19:42:48;16.80;;;7.85;;
19593;SDS011;9944;48.240;16.478;2022-11-15T19:46:52;15.27;;;8.27;;
19593;SDS011;9944;48.240;16.478;2022-11-15T19:50:58;19.75;;;7.93;;
19593;SDS011;9944;48.240;16.478;2022-11-15T19:55:02;17.50;;;8.10;;
19593;SDS011;9944;48.240;16.478;2022-11-15T19:59:05;15.55;;;8.00;;
19593;SDS011;9944;48.240;16.478;2022-11-15T20:03:09;13.85;;;7.55;;
19593;SDS011;9944;48.240;16.478;2022-11-15T20:07:14;18.02;;;7.47;;
19593;SDS011;9944;48.240;16.478;2022-11-15T20:11:18;13.63;;;7.60;;
19593;SDS011;9944;48.240;16.478;2022-11-15T20:15:21;14.50;;;8.07;;
19593;SDS011;9944;48.240;16.478;2022-11-15T20:19:24;16.15;;;8.60;;
19593;SDS011;9944;48.240;16.478;2022-11-15T20:23:29;20.15;;;9.98;;
19593;SDS011;9944;48.240;16.478;2022-11-15T20:27:32;15.77;;;7.85;;
19593;SDS011;9944;48.240;16.478;2022-11-15T20:31:35;18.67;;;8.98;;
19593;SDS011;9944;48.240;16.478;2022-11-15T20:35:38;19.25;;;10.00;;
19593;SDS011;9944;48.240;16.478;2022-11-15T20:39:43;19.30;;;9.82;;
19593;SDS011;9944;48.240;16.478;2022-11-15T20:43:46;22.85;;;10.35;;
19593;SDS011;9944;48.240;16.478;2022-11-15T20:47:50;22.40;;;10.68;;
19593;SDS011;9944;48.240;16.478;2022-11-15T20:51:56;21.67;;;9.40;;
19593;SDS011;9944;48.240;16.478;2022-11-15T20:56:03;22.65;;;10.82;;
19593;SDS011;9944;48.240;16.478;2022-11-15T21:00:08;23.90;;;10.35;;
19593;SDS011;9944;48.240;16.478;2022-11-15T21:04:12;19.25;;;10.43;;
19593;SDS011;9944;48.240;16.478;2022-11-15T21:08:15;21.60;;;10.50;;
19593;SDS011;9944;48.240;16.478;2022-11-15T21:12:19;22.45;;;11.02;;
19593;SDS011;9944;48.240;16.478;2022-11-15T21:16:21;24.17;;;11.07;;
19593;SDS011;9944;48.240;16.478;2022-11-15T21:20:24;22.40;;;12.02;;
19593;SDS011;9944;48.240;16.478;2022-11-15T21:24:28;22.42;;;10.80;;
19593;SDS011;9944;48.240;16.478;2022-11-15T21:28:33;26.02;;;11.10;;
19593;SDS011;9944;48.240;16.478;2022-11-15T21:32:36;24.08;;;11.15;;
19593;SDS011;9944;48.240;16.478;2022-11-15T21:36:39;23.92;;;11.07;;
19593;SDS011;9944;48.240;16.478;2022-11-15T21:40:42;22.98;;;10.93;;
19593;SDS011;9944;48.240;16.478;2022-11-15T21:44:47;24.88;;;10.73;;
19593;SDS011;9944;48.240;16.478;2022-11-15T21:48:50;24.40;;;10.70;;
19593;SDS011;9944;48.240;16.478;2022-11-15T21:52:53;24.33;;;10.55;;
19593;SDS011;9944;48.240;16.478;2022-11-15T21:56:56;22.05;;;10.30;;
19593;SDS011;9944;48.240;16.478;2022-11-15T22:01:01;21.42;;;10.25;;
19593;SDS011;9944;48.240;16.478;2022-11-15T22:05:25;23.48;;;10.63;;
19593;SDS011;9944;48.240;16.478;2022-11-15T22:09:28;22.92;;;9.80;;
19593;SDS011;9944;48.240;16.478;2022-11-15T22:13:31;20.42;;;9.40;;
19593;SDS011;9944;48.240;16.478;2022-11-15T22:17:36;20.63;;;9.98;;
19593;SDS011;9944;48.240;16.478;2022-11-15T22:21:56;21.58;;;10.30;;
19593;SDS011;9944;48.240;16.478;2022-11-15T22:25:59;22.38;;;10.48;;
19593;SDS011;9944;48.240;16.478;2022-11-15T22:30:03;21.83;;;10.00;;
19593;SDS011;9944;48.240;16.478;2022-11-15T22:34:08;23.40;;;10.68;;
19593;SDS011;9944;48.240;16.478;2022-11-15T22:38:11;22.55;;;9.75;;
19593;SDS011;9944;48.240;16.478;2022-11-15T22:42:15;22.35;;;9.90;;
19593;SDS011;9944;48.240;16.478;2022-11-15T22:46:24;26.92;;;10.52;;
19593;SDS011;9944;48.240;16.478;2022-11-15T22:50:29;23.83;;;11.50;;
19593;SDS011;9944;48.240;16.478;2022-11-15T22:54:33;25.35;;;11.02;;
19593;SDS011;9944;48.240;16.478;2022-11-15T22:58:36;24.02;;;10.73;;
19593;SDS011;9944;48.240;16.478;2022-11-15T23:02:39;24.63;;;11.40;;
19593;SDS011;9944;48.240;16.478;2022-11-15T23:06:44;24.60;;;10.40;;
19593;SDS011;9944;48.240;16.478;2022-11-15T23:10:47;24.77;;;11.00;;
19593;SDS011;9944;48.240;16.478;2022-11-15T23:15:08;26.17;;;11.90;;
19593;SDS011;9944;48.240;16.478;2022-11-15T23:19:11;26.73;;;11.18;;
19593;SDS011;9944;48.240;16.478;2022-11-15T23:23:16;26.65;;;11.20;;
19593;SDS011;9944;48.240;16.478;2022-11-15T23:27:20;26.05;;;10.98;;
19593;SDS011;9944;48.240;16.478;2022-11-15T23:31:24;24.10;;;10.43;;
19593;SDS011;9944;48.240;16.478;2022-11-15T23:35:51;23.73;;;11.23;;
19593;SDS011;9944;48.240;16.478;2022-11-15T23:39:56;23.90;;;11.13;;
19593;SDS011;9944;48.240;16.478;2022-11-15T23:44:00;26.98;;;11.02;;
19593;SDS011;9944;48.240;16.478;2022-11-15T23:48:03;24.20;;;10.70;;
19593;SDS011;9944;48.240;16.478;2022-11-15T23:52:07;29.33;;;11.40;;
19593;SDS011;9944;48.240;16.478;2022-11-15T23:56:12;26.33;;;11.13;;
